Time;durP1;ratioP1;P1;durP2;ratioP2;P2;SDS_P1;SDS_P2;PMS_P1;PMS_P2;Temp;Humidity;BMP_temperature;BMP_pressure;BME280_temperature;BME280_humidity;BME280_pressure;Samples;Min_cycle;Max_cycle;Signal;HPM_P1;HPM_P2
2021/01/30 00:00:23;;;;;;;13.60;11.23;;;;;;;6.22;60.88;100333.09;5062998;28;20036;-78
2021/01/30 00:02:49;;;;;;;11.73;10.65;;;;;;;6.27;60.97;100346.88;5068371;28;20040;-78
2021/01/30 00:05:14;;;;;;;15.18;11.80;;;;;;;6.30;60.57;100335.72;5062814;28;20391;-78
2021/01/30 00:07:40;;;;;;;17.05;15.52;;;;;;;6.20;60.72;100349.47;5059860;28;20056;-78
2021/01/30 00:10:07;;;;;;;16.95;14.98;;;;;;;6.51;59.82;100355.81;5064155;28;20028;-78
2021/01/30 00:12:33;;;;;;;16.15;12.45;;;;;;;6.52;59.55;100355.63;5067320;28;20046;-78
2021/01/30 00:14:58;;;;;;;20.45;16.60;;;;;;;6.09;60.38;100360.69;5062161;28;20033;-78
2021/01/30 00:17:24;;;;;;;16.48;14.27;;;;;;;6.26;61.18;100356.00;5064145;28;20024;-78
2021/01/30 00:19:49;;;;;;;14.63;13.40;;;;;;;6.26;60.18;100353.31;5062250;28;20036;-79
2021/01/30 00:22:18;;;;;;;18.60;17.13;;;;;;;6.09;60.47;100350.72;5065964;28;20029;-78
2021/01/30 00:24:44;;;;;;;22.30;18.02;;;;;;;5.97;61.64;100346.75;5061675;28;20585;-78
2021/01/30 00:27:16;;;;;;;20.20;15.15;;;;;;;5.92;61.39;100349.13;5062112;28;20040;-78
2021/01/30 00:29:42;;;;;;;20.27;18.52;;;;;;;5.83;61.27;100352.91;5054420;28;20112;-78
2021/01/30 00:32:10;;;;;;;27.10;24.77;;;;;;;5.89;61.33;100360.28;5064203;28;20461;-79
2021/01/30 00:34:37;;;;;;;18.55;17.08;;;;;;;5.84;61.26;100360.81;5063793;28;20032;-78
2021/01/30 00:37:23;;;;;;;20.13;18.48;;;;;;;6.01;60.77;100364.28;5055821;28;20025;-78
2021/01/30 00:39:51;;;;;;;19.15;17.55;;;;;;;5.92;60.96;100366.16;5058965;28;20067;-79
2021/01/30 00:42:19;;;;;;;27.80;25.77;;;;;;;5.81;61.22;100361.16;5063937;28;20249;-78
2021/01/30 00:44:44;;;;;;;23.33;21.42;;;;;;;5.71;61.20;100360.53;5063821;28;20029;-78
2021/01/30 00:47:11;;;;;;;26.58;24.42;;;;;;;5.67;61.67;100362.75;5065542;28;20024;-78
2021/01/30 00:49:39;;;;;;;32.63;29.88;;;;;;;5.78;60.99;100353.44;5065070;28;20043;-78
2021/01/30 00:52:05;;;;;;;25.63;23.67;;;;;;;5.69;60.92;100352.63;5066097;28;20029;-78
2021/01/30 00:54:30;;;;;;;21.05;18.98;;;;;;;5.77;60.99;100356.31;5063668;28;20028;-78
2021/01/30 00:56:56;;;;;;;21.15;19.20;;;;;;;5.76;60.83;100357.31;5062709;28;20033;-78
2021/01/30 00:59:22;;;;;;;19.60;17.83;;;;;;;5.75;60.65;100361.88;5063807;28;20291;-79
2021/01/30 01:01:51;;;;;;;15.77;14.52;;;;;;;5.77;60.57;100357.13;5043953;28;20033;-78
2021/01/30 01:04:18;;;;;;;15.75;13.07;;;;;;;5.45;61.27;100360.81;5064853;28;20036;-78
2021/01/30 01:06:43;;;;;;;15.73;14.35;;;;;;;5.59;60.82;100364.63;5064723;28;20513;-78
2021/01/30 01:09:10;;;;;;;20.05;18.25;;;;;;;5.57;60.93;100368.34;5060193;28;20052;-78
2021/01/30 01:11:36;;;;;;;19.20;17.58;;;;;;;5.51;61.10;100362.81;5061627;28;20079;-78
2021/01/30 01:14:02;;;;;;;20.52;18.77;;;;;;;5.55;61.01;100370.38;5057799;28;20605;-78
2021/01/30 01:16:28;;;;;;;21.05;19.15;;;;;;;5.51;61.23;100387.09;5064236;28;20032;-78
2021/01/30 01:18:53;;;;;;;17.98;16.52;;;;;;;5.42;61.32;100380.06;5065101;28;20040;-78
2021/01/30 01:21:19;;;;;;;15.50;13.82;;;;;;;5.46;61.33;100382.22;5064966;28;20035;-78
2021/01/30 01:23:45;;;;;;;20.55;18.80;;;;;;;5.37;61.78;100377.88;5063656;28;20058;-78
2021/01/30 01:26:12;;;;;;;20.02;17.50;;;;;;;5.17;62.22;100378.28;5063344;28;20029;-78
2021/01/30 01:28:38;;;;;;;26.65;24.45;;;;;;;4.79;62.46;100375.31;5059974;28;20102;-78
2021/01/30 01:31:04;;;;;;;21.83;19.83;;;;;;;4.98;61.52;100374.09;5063638;28;20530;-78
2021/01/30 01:33:30;;;;;;;33.30;30.70;;;;;;;4.96;61.56;100384.22;5061658;28;20138;-77
2021/01/30 01:35:56;;;;;;;26.08;24.20;;;;;;;5.23;60.77;100387.53;5060481;28;20166;-77
2021/01/30 01:38:21;;;;;;;17.35;16.15;;;;;;;5.10;60.61;100396.16;5061813;28;20098;-77
2021/01/30 01:40:47;;;;;;;21.33;19.25;;;;;;;5.30;60.10;100403.84;5058643;28;20036;-78
2021/01/30 01:43:19;;;;;;;27.80;25.77;;;;;;;5.10;60.21;100414.19;5067064;28;20025;-78
2021/01/30 01:46:07;;;;;;;28.10;25.73;;;;;;;5.05;60.25;100417.41;5055432;28;20170;-78
2021/01/30 01:48:36;;;;;;;38.47;35.63;;;;;;;5.25;59.67;100420.56;5062495;28;20032;-78
2021/01/30 01:51:05;;;;;;;37.15;34.58;;;;;;;5.20;59.83;100415.69;5060983;28;20127;-78
2021/01/30 01:53:35;;;;;;;31.67;29.58;;;;;;;5.01;60.70;100419.56;5066155;28;20554;-78
2021/01/30 01:56:13;;;;;;;38.75;36.00;;;;;;;5.14;60.10;100402.03;5064996;28;20120;-78
2021/01/30 01:58:43;;;;;;;46.80;43.13;;;;;;;4.81;60.93;100396.72;5063590;28;20051;-77
2021/01/30 02:01:09;;;;;;;33.83;30.75;;;;;;;4.76;61.15;100401.78;5061143;28;20043;-77
2021/01/30 02:03:36;;;;;;;26.00;24.33;;;;;;;4.52;61.54;100397.22;5064468;28;20470;-77
2021/01/30 02:06:02;;;;;;;23.73;21.83;;;;;;;4.61;61.47;100398.91;5058117;28;20089;-78
2021/01/30 02:08:29;;;;;;;19.58;18.02;;;;;;;4.63;61.28;100402.25;5061749;28;20063;-77
2021/01/30 02:10:55;;;;;;;19.50;17.98;;;;;;;4.76;60.87;100407.16;5061808;28;20039;-77
2021/01/30 02:13:28;;;;;;;27.25;25.23;;;;;;;4.73;60.75;100410.19;5060259;28;20512;-77
2021/01/30 02:16:10;;;;;;;34.20;31.88;;;;;;;4.44;61.80;100406.13;5066843;28;20761;-77
2021/01/30 02:18:48;;;;;;;26.80;24.85;;;;;;;4.76;60.99;100401.78;5062389;28;20032;-77
2021/01/30 02:21:51;;;;;;;28.00;25.92;;;;;;;4.48;61.58;100415.56;5065418;28;20100;-77
2021/01/30 02:24:55;;;;;;;32.05;29.90;;;;;;;4.74;60.88;100406.47;5058859;28;20036;-77
2021/01/30 02:27:45;;;;;;;31.58;29.33;;;;;;;4.66;60.90;100412.69;5058025;28;20050;-77
2021/01/30 02:30:48;;;;;;;20.80;19.20;;;;;;;4.57;61.30;100413.69;5063614;28;20043;-77
2021/01/30 02:33:52;;;;;;;28.40;26.55;;;;;;;4.38;61.60;100412.19;5064972;28;20025;-77
2021/01/30 02:36:26;;;;;;;32.28;29.92;;;;;;;4.71;60.36;100415.75;5063684;28;20094;-77
2021/01/30 02:39:19;;;;;;;36.13;33.58;;;;;;;4.70;60.59;100413.22;5058136;28;20597;-76
2021/01/30 02:42:12;;;;;;;39.15;36.28;;;;;;;4.72;60.86;100403.09;5064868;28;20027;-77
2021/01/30 02:44:42;;;;;;;37.90;35.53;;;;;;;4.78;60.33;100405.97;5053889;28;20035;-77
2021/01/30 02:47:10;;;;;;;22.63;20.95;;;;;;;4.41;61.50;100412.69;5064397;28;20035;-77
2021/01/30 02:49:42;;;;;;;24.52;22.60;;;;;;;4.54;60.95;100404.13;5061747;28;20041;-77
2021/01/30 02:52:13;;;;;;;22.25;20.77;;;;;;;4.57;60.98;100403.78;5064560;28;20020;-76
2021/01/30 02:54:40;;;;;;;21.23;19.63;;;;;;;4.50;61.23;100397.38;5055348;28;20033;-77
2021/01/30 02:57:11;;;;;;;22.55;21.00;;;;;;;4.55;60.87;100397.72;5063926;28;20078;-77
2021/01/30 02:59:52;;;;;;;19.10;17.60;;;;;;;4.66;60.25;100402.78;5064080;28;20546;-77
2021/01/30 03:02:19;;;;;;;27.23;25.30;;;;;;;4.51;60.54;100407.16;5066020;28;20037;-76
2021/01/30 03:04:46;;;;;;;31.63;29.50;;;;;;;4.51;60.71;100423.31;5066435;28;20040;-77
2021/01/30 03:07:27;;;;;;;26.67;24.52;;;;;;;4.60;60.16;100430.38;5068230;28;20024;-77
2021/01/30 03:10:34;;;;;;;22.42;20.77;;;;;;;4.62;60.08;100422.97;5060816;28;20086;-77
2021/01/30 03:13:07;;;;;;;25.40;23.70;;;;;;;4.53;60.50;100432.06;5065028;28;20051;-77
2021/01/30 03:15:46;;;;;;;25.55;23.70;;;;;;;4.47;60.72;100417.41;5064688;28;20417;-77
2021/01/30 03:18:17;;;;;;;22.48;20.88;;;;;;;4.50;60.86;100427.00;5063262;28;20540;-77
2021/01/30 03:20:45;;;;;;;19.70;18.17;;;;;;;4.55;60.49;100421.94;5065541;28;20110;-78
2021/01/30 03:23:12;;;;;;;23.75;22.25;;;;;;;4.42;60.95;100422.47;5064168;28;20478;-77
2021/01/30 03:25:39;;;;;;;21.48;19.98;;;;;;;4.44;60.71;100417.72;5060982;28;20045;-77
2021/01/30 03:28:05;;;;;;;17.20;15.98;;;;;;;4.42;60.71;100409.00;5065457;28;20102;-77
2021/01/30 03:30:31;;;;;;;17.73;16.42;;;;;;;4.37;61.13;100421.25;5065709;28;20037;-77
2021/01/30 03:32:57;;;;;;;19.52;18.08;;;;;;;4.32;61.01;100421.75;5067509;28;20059;-77
2021/01/30 03:35:23;;;;;;;21.25;19.70;;;;;;;4.36;60.97;100417.72;5064310;28;20060;-77
2021/01/30 03:37:49;;;;;;;21.70;19.70;;;;;;;4.25;61.64;100420.75;5062208;28;20474;-77
2021/01/30 03:40:16;;;;;;;23.38;21.73;;;;;;;4.23;61.60;100423.63;5064532;28;20056;-77
2021/01/30 03:42:41;;;;;;;21.83;20.25;;;;;;;4.33;61.46;100425.31;5061319;28;20058;-77
2021/01/30 03:45:11;;;;;;;18.05;16.67;;;;;;;4.36;61.41;100419.59;5067468;28;20033;-77
2021/01/30 03:47:37;;;;;;;20.10;18.65;;;;;;;4.43;61.44;100421.47;5063835;28;20024;-77
2021/01/30 03:50:04;;;;;;;15.73;14.70;;;;;;;4.28;61.50;100421.25;5065482;28;20086;-77
2021/01/30 03:52:30;;;;;;;26.38;24.63;;;;;;;4.38;61.21;100421.09;5068051;28;20070;-77
2021/01/30 03:54:55;;;;;;;28.05;26.00;;;;;;;4.41;61.05;100433.38;5065449;28;20409;-77
2021/01/30 03:57:21;;;;;;;25.38;23.55;;;;;;;4.26;61.46;100442.13;5064459;28;20124;-77
2021/01/30 03:59:48;;;;;;;24.02;22.33;;;;;;;4.42;60.93;100440.47;5063631;28;20052;-77
2021/01/30 04:02:13;;;;;;;37.90;35.28;;;;;;;4.33;61.27;100446.84;5065794;28;20107;-77
2021/01/30 04:04:38;;;;;;;27.60;25.80;;;;;;;4.35;61.46;100444.81;5060899;28;20040;-77
2021/01/30 04:07:04;;;;;;;42.38;39.72;;;;;;;4.22;61.57;100438.06;5062303;28;20498;-77
2021/01/30 04:09:29;;;;;;;30.65;28.55;;;;;;;4.46;61.08;100439.09;5060569;28;20024;-77
2021/01/30 04:11:55;;;;;;;23.00;21.48;;;;;;;4.35;61.39;100434.06;5063960;28;20070;-77
2021/01/30 04:14:20;;;;;;;42.35;39.35;;;;;;;4.59;61.07;100439.47;5068485;28;20535;-77
2021/01/30 04:16:46;;;;;;;37.15;34.75;;;;;;;4.46;61.35;100434.59;5064245;28;20036;-77
2021/01/30 04:19:12;;;;;;;30.90;28.80;;;;;;;4.58;60.91;100434.25;5065132;28;20063;-77
2021/01/30 04:21:38;;;;;;;22.60;20.88;;;;;;;4.42;61.30;100429.69;5063463;28;20347;-77
2021/01/30 04:24:04;;;;;;;23.25;21.50;;;;;;;4.42;61.47;100440.47;5068423;28;20028;-77
2021/01/30 04:26:29;;;;;;;20.10;18.58;;;;;;;4.38;61.70;100436.41;5064071;28;20024;-77
2021/01/30 04:28:54;;;;;;;20.40;18.90;;;;;;;4.28;61.90;100442.78;5062722;28;20028;-77
2021/01/30 04:31:21;;;;;;;22.83;21.13;;;;;;;4.58;60.91;100443.16;5055522;28;20036;-77
2021/01/30 04:33:48;;;;;;;21.75;20.23;;;;;;;4.59;60.89;100433.25;5064838;28;20033;-77
2021/01/30 04:36:14;;;;;;;26.67;24.85;;;;;;;4.42;61.09;100427.00;5067115;28;20112;-77
2021/01/30 04:38:40;;;;;;;37.45;34.70;;;;;;;4.43;61.27;100429.53;5046506;28;20060;-77
2021/01/30 04:41:12;;;;;;;38.78;36.08;;;;;;;4.24;61.91;100427.97;5055620;28;20059;-77
2021/01/30 04:43:42;;;;;;;38.47;35.83;;;;;;;4.18;62.07;100425.09;5064398;28;20036;-77
2021/01/30 04:46:27;;;;;;;24.95;23.05;;;;;;;4.27;61.92;100426.81;5060958;28;20024;-77
2021/01/30 04:48:59;;;;;;;38.85;36.17;;;;;;;4.44;61.38;100424.97;5063268;28;20059;-77
2021/01/30 04:51:30;;;;;;;;;;;;;;;4.37;61.60;100427.50;5061022;28;20087;-77
2021/01/30 04:54:10;;;;;;;22.10;20.25;;;;;;;4.53;61.75;100421.28;5065344;28;19958;-77
2021/01/30 04:56:49;;;;;;;18.37;16.87;;;;;;;4.35;62.18;100418.72;5066600;28;20498;-77
2021/01/30 04:59:37;;;;;;;21.75;20.10;;;;;;;4.39;62.26;100422.78;5065780;28;20935;-77
2021/01/30 05:02:28;;;;;;;23.67;22.00;;;;;;;4.67;61.62;100411.69;5060275;28;20033;-77
2021/01/30 05:04:55;;;;;;;;;;;;;;;4.75;61.56;100414.38;5054896;28;20040;-76
2021/01/30 05:07:37;;;;;;;22.45;20.42;;;;;;;4.82;61.56;100411.88;5066111;28;19912;-77
2021/01/30 05:10:15;;;;;;;24.73;22.65;;;;;;;4.80;61.71;100398.56;5060450;28;20024;-77
2021/01/30 05:12:50;;;;;;;23.85;21.85;;;;;;;4.82;62.07;100398.41;5059603;28;20051;-77
2021/01/30 05:15:30;;;;;;;42.70;39.67;;;;;;;4.63;62.50;100397.72;5064298;28;20033;-77
2021/01/30 05:18:16;;;;;;;28.38;26.23;;;;;;;4.75;62.05;100387.44;5060105;28;20036;-77
2021/01/30 05:20:49;;;;;;;30.38;28.02;;;;;;;4.52;62.50;100381.91;5060832;28;20024;-77
2021/01/30 05:23:16;;;;;;;31.83;29.23;;;;;;;4.36;62.37;100381.91;5062882;28;20068;-77
2021/01/30 05:25:44;;;;;;;31.65;29.25;;;;;;;4.61;62.15;100380.88;5057141;28;20028;-77
2021/01/30 05:28:26;;;;;;;33.15;30.30;;;;;;;4.48;62.44;100373.31;5065161;28;20028;-78
2021/01/30 05:31:13;;;;;;;19.80;18.00;;;;;;;4.51;62.20;100380.22;5062336;28;20029;-78
2021/01/30 05:33:59;;;;;;;30.60;28.33;;;;;;;4.37;62.49;100387.13;5063804;28;20040;-78
2021/01/30 05:36:35;;;;;;;24.17;22.20;;;;;;;4.36;62.43;100390.81;5054718;28;20036;-78
2021/01/30 05:39:10;;;;;;;28.23;25.98;;;;;;;4.28;62.34;100388.97;5069870;28;20139;-79
2021/01/30 05:42:06;;;;;;;27.92;25.52;;;;;;;4.26;62.29;100390.13;5054866;28;20033;-77
2021/01/30 05:44:54;;;;;;;23.88;21.88;;;;;;;4.28;62.28;100385.44;5063415;28;20422;-77
2021/01/30 05:47:23;;;;;;;28.10;25.75;;;;;;;4.22;62.52;100380.72;5062515;28;20036;-77
2021/01/30 05:50:11;;;;;;;26.33;23.98;;;;;;;4.03;62.63;100368.41;5060857;28;20028;-77
2021/01/30 05:52:38;;;;;;;22.42;20.63;;;;;;;3.95;62.96;100377.28;5064927;28;20037;-78
2021/01/30 05:55:06;;;;;;;25.98;23.95;;;;;;;4.01;62.85;100383.88;5066674;28;20032;-79
2021/01/30 05:57:32;;;;;;;32.50;29.80;;;;;;;4.19;62.62;100371.13;5062424;28;20032;-77
2021/01/30 05:59:59;;;;;;;23.20;21.30;;;;;;;4.10;62.92;100382.88;5066092;28;20021;-78
2021/01/30 06:02:27;;;;;;;23.70;21.58;;;;;;;4.12;62.92;100381.72;5061294;28;20029;-77
2021/01/30 06:04:53;;;;;;;21.33;19.60;;;;;;;4.40;62.59;100377.84;5062354;28;20044;-78
2021/01/30 06:07:27;;;;;;;22.30;20.45;;;;;;;4.35;62.87;100372.13;5056185;28;20745;-77
2021/01/30 06:09:53;;;;;;;22.88;20.75;;;;;;;4.27;62.72;100381.06;5059711;28;20035;-77
2021/01/30 06:12:33;;;;;;;31.73;29.33;;;;;;;4.04;62.99;100383.53;5061004;28;20040;-76
2021/01/30 06:15:13;;;;;;;27.58;25.38;;;;;;;4.10;62.74;100378.31;5059136;28;20734;-77
2021/01/30 06:17:39;;;;;;;30.58;28.33;;;;;;;4.06;62.60;100378.81;5063775;28;20382;-78
2021/01/30 06:20:26;;;;;;;29.40;27.23;;;;;;;4.05;62.51;100387.94;5059743;28;20028;-76
2021/01/30 06:23:12;;;;;;;32.90;30.50;;;;;;;3.97;62.79;100385.19;5063579;28;20115;-78
2021/01/30 06:25:40;;;;;;;27.90;25.42;;;;;;;4.07;62.53;100378.66;5064263;28;20090;-77
2021/01/30 06:28:30;;;;;;;34.92;32.15;;;;;;;4.23;62.16;100382.38;5062729;28;20028;-76
2021/01/30 06:31:11;;;;;;;28.92;26.70;;;;;;;4.28;62.61;100380.88;5060058;28;20040;-78
2021/01/30 06:33:44;;;;;;;24.03;22.07;;;;;;;4.14;62.97;100386.94;5066604;28;20029;-77
2021/01/30 06:36:19;;;;;;;27.30;22.15;;;;;;;4.17;62.72;100381.22;5064811;28;20028;-77
2021/01/30 06:39:10;;;;;;;31.45;28.88;;;;;;;4.34;62.46;100375.84;5059784;28;20094;-78
2021/01/30 06:41:36;;;;;;;28.75;26.52;;;;;;;4.08;62.42;100377.66;5063470;28;20039;-77
2021/01/30 06:44:22;;;;;;;25.90;23.70;;;;;;;4.21;62.42;100382.56;5061825;28;20423;-78
2021/01/30 06:47:11;;;;;;;37.75;34.83;;;;;;;4.25;62.08;100383.06;5064995;28;20037;-77
2021/01/30 06:49:41;;;;;;;32.75;29.77;;;;;;;4.26;62.16;100391.00;5062150;28;20045;-77
2021/01/30 06:52:13;;;;;;;31.58;29.10;;;;;;;4.18;62.17;100388.25;5063515;28;20028;-77
2021/01/30 06:54:38;;;;;;;34.22;31.65;;;;;;;4.56;61.50;100394.03;5059035;28;20500;-77
2021/01/30 06:57:19;;;;;;;32.67;29.88;;;;;;;4.17;61.95;100397.38;5066048;28;20107;-78
2021/01/30 07:00:07;;;;;;;26.55;24.38;;;;;;;4.26;62.02;100390.13;5061711;28;20072;-78
2021/01/30 07:02:38;;;;;;;24.23;22.25;;;;;;;4.49;61.50;100393.00;5059532;28;20039;-77
2021/01/30 07:05:19;;;;;;;33.17;30.63;;;;;;;4.40;61.92;100392.19;5066891;28;20025;-77
2021/01/30 07:08:04;;;;;;;26.13;23.92;;;;;;;4.26;62.11;100395.50;5062770;28;20466;-78
2021/01/30 07:10:51;;;;;;;36.25;33.53;;;;;;;4.42;61.75;100389.31;5065960;28;20035;-78
2021/01/30 07:13:47;;;;;;;40.58;37.63;;;;;;;4.68;60.71;100397.22;5058994;28;20028;-78
2021/01/30 07:16:38;;;;;;;43.45;40.17;;;;;;;4.30;61.76;100386.94;5064005;28;20036;-79
2021/01/30 07:19:30;;;;;;;46.10;42.70;;;;;;;4.16;61.59;100398.38;5062425;28;20124;-78
2021/01/30 07:22:01;;;;;;;55.33;51.53;;;;;;;4.20;61.21;100397.03;5063267;28;20104;-79
2021/01/30 07:24:35;;;;;;;37.10;34.38;;;;;;;3.96;61.03;100395.13;5065410;28;20017;-77
2021/01/30 07:27:09;;;;;;;33.83;31.35;;;;;;;4.20;60.58;100402.41;5058487;28;20029;-77
2021/01/30 07:29:51;;;;;;;45.50;42.33;;;;;;;3.98;60.40;100401.19;5064753;28;20120;-79
2021/01/30 07:32:27;;;;;;;27.70;25.67;;;;;;;3.91;60.36;100394.78;5065169;28;20021;-79
2021/01/30 07:35:16;;;;;;;30.98;28.77;;;;;;;4.00;60.17;100403.69;5057266;28;20034;-78
2021/01/30 07:38:03;;;;;;;31.10;28.80;;;;;;;4.01;60.57;100392.78;5066743;28;20055;-78
2021/01/30 07:41:01;;;;;;;36.13;33.60;;;;;;;3.88;61.02;100411.25;5065157;28;20036;-79
2021/01/30 07:43:32;;;;;;;44.30;41.17;;;;;;;4.03;60.74;100406.06;5066863;28;20064;-79
2021/01/30 07:46:18;;;;;;;48.08;44.78;;;;;;;3.74;60.80;100407.34;5064002;28;20032;-79
2021/01/30 07:48:51;;;;;;;46.70;43.47;;;;;;;4.07;60.49;100396.66;5057759;28;20056;-78
2021/01/30 07:51:22;;;;;;;33.90;31.33;;;;;;;3.80;60.56;100395.06;5064582;28;20387;-78
2021/01/30 07:53:47;;;;;;;24.27;22.48;;;;;;;4.30;60.16;100391.47;5069085;28;20035;-77
2021/01/30 07:56:19;;;;;;;29.52;27.20;;;;;;;4.17;60.92;100394.69;5067830;28;20029;-79
2021/01/30 07:59:19;;;;;;;37.55;34.70;;;;;;;4.24;60.79;100392.97;5060511;28;20067;-79
2021/01/30 08:02:03;;;;;;;31.55;29.27;;;;;;;4.04;60.91;100394.31;5062002;28;20510;-79
2021/01/30 08:04:47;;;;;;;40.08;37.15;;;;;;;4.31;60.51;100390.50;5061929;28;20515;-78
2021/01/30 08:07:44;;;;;;;39.05;36.15;;;;;;;4.49;60.45;100390.31;5065234;28;20029;-79
2021/01/30 08:10:15;;;;;;;44.53;41.25;;;;;;;4.07;60.18;100396.66;5065762;28;20436;-80
2021/01/30 08:13:01;;;;;;;;;;;;;;;4.32;60.03;100394.00;5060360;28;20036;-80
2021/01/30 08:15:39;;;;;;;33.70;31.08;;;;;;;4.31;60.49;100382.41;5065309;28;19962;-79
2021/01/30 08:18:38;;;;;;;37.85;34.92;;;;;;;4.24;60.32;100382.22;5062553;28;20032;-80
2021/01/30 08:21:16;;;;;;;34.33;31.50;;;;;;;4.17;60.70;100391.13;5065339;28;20814;-80
2021/01/30 08:24:27;;;;;;;24.70;22.73;;;;;;;4.13;60.66;100369.09;5062558;28;20028;-79
2021/01/30 08:27:06;;;;;;;36.88;34.08;;;;;;;4.36;59.96;100384.59;5064938;28;20028;-78
2021/01/30 08:29:45;;;;;;;30.25;27.95;;;;;;;4.21;60.42;100392.47;5063250;28;20089;-79
2021/01/30 08:32:25;;;;;;;30.42;28.05;;;;;;;4.16;60.46;100384.91;5061974;28;20555;-79
2021/01/30 08:34:56;;;;;;;32.40;29.92;;;;;;;4.36;60.24;100374.66;5063178;28;20493;-78
2021/01/30 08:37:24;;;;;;;28.58;26.23;;;;;;;4.19;60.04;100387.25;5059245;28;20429;-79
2021/01/30 08:40:01;;;;;;;30.48;28.15;;;;;;;4.14;59.94;100378.84;5062023;28;20048;-79
2021/01/30 08:42:34;;;;;;;33.63;31.05;;;;;;;3.92;60.61;100378.47;5063809;28;20313;-80
2021/01/30 08:45:02;;;;;;;38.10;35.15;;;;;;;4.15;60.56;100371.63;5064742;28;20055;-78
2021/01/30 08:47:32;;;;;;;31.10;28.60;;;;;;;4.28;60.08;100377.38;5058050;28;20368;-79
2021/01/30 08:50:12;;;;;;;38.90;36.10;;;;;;;4.21;60.74;100369.09;5062867;28;20049;-80
2021/01/30 08:52:53;;;;;;;31.90;29.25;;;;;;;4.12;60.83;100370.09;5065325;28;20071;-80
2021/01/30 08:55:28;;;;;;;32.55;29.88;;;;;;;4.31;60.89;100360.88;5063325;28;20024;-79
2021/01/30 08:57:54;;;;;;;35.78;32.92;;;;;;;4.22;61.24;100372.66;5058562;28;20540;-81
2021/01/30 09:00:26;;;;;;;23.83;21.73;;;;;;;4.39;61.50;100360.03;5064044;28;20032;-78
2021/01/30 09:02:52;;;;;;;31.58;29.08;;;;;;;4.35;60.32;100364.06;5060349;28;20082;-80
2021/01/30 09:05:20;;;;;;;34.35;31.65;;;;;;;4.10;60.65;100374.81;5063196;28;20445;-79
2021/01/30 09:07:50;;;;;;;24.00;21.98;;;;;;;4.36;59.67;100358.50;5064947;28;20097;-79
2021/01/30 09:10:21;;;;;;;23.33;21.23;;;;;;;4.35;59.53;100364.06;5064127;28;20082;-78
2021/01/30 09:13:11;;;;;;;34.20;31.58;;;;;;;4.32;59.99;100367.09;5062836;28;20791;-79
2021/01/30 09:15:43;;;;;;;37.25;34.15;;;;;;;4.38;59.83;100345.72;5059029;28;20047;-78
2021/01/30 09:18:27;;;;;;;30.77;28.17;;;;;;;4.39;59.65;100357.34;5064898;28;20478;-79
2021/01/30 09:21:14;;;;;;;24.25;22.15;;;;;;;4.37;59.60;100357.50;5063781;28;20032;-79
2021/01/30 09:24:09;;;;;;;22.60;20.55;;;;;;;4.42;60.04;100359.69;5064503;28;20036;-79
2021/01/30 09:27:11;;;;;;;24.67;22.42;;;;;;;4.59;59.62;100347.91;5050453;28;20037;-79
2021/01/30 09:29:45;;;;;;;33.13;30.40;;;;;;;4.57;59.22;100339.16;5061483;28;20080;-79
2021/01/30 09:32:14;;;;;;;36.38;33.53;;;;;;;4.48;59.42;100342.88;5059738;28;20036;-79
2021/01/30 09:34:53;;;;;;;42.97;39.78;;;;;;;4.50;59.85;100348.09;5061058;28;20039;-79
2021/01/30 09:37:36;;;;;;;27.33;25.13;;;;;;;4.44;59.07;100360.38;5066226;28;20140;-79
2021/01/30 09:40:05;;;;;;;33.90;31.15;;;;;;;4.26;59.43;100358.69;5062688;28;20078;-78
2021/01/30 09:42:31;;;;;;;30.67;28.15;;;;;;;4.44;59.01;100363.88;5066307;28;20040;-80
2021/01/30 09:45:10;;;;;;;21.67;19.65;;;;;;;4.95;58.84;100365.53;5061167;28;20032;-80
2021/01/30 09:47:42;;;;;;;32.83;30.15;;;;;;;4.64;59.20;100359.00;5058465;28;20471;-79
2021/01/30 09:50:13;;;;;;;27.23;24.92;;;;;;;4.92;58.83;100349.72;5054987;28;20071;-79
2021/01/30 09:52:49;;;;;;;24.35;22.15;;;;;;;4.80;58.33;100366.25;5063532;28;20040;-79
2021/01/30 09:55:14;;;;;;;30.35;27.75;;;;;;;4.70;58.66;100367.44;5059837;28;20047;-80
2021/01/30 09:57:42;;;;;;;29.63;26.92;;;;;;;4.71;58.92;100352.94;5062636;28;20566;-79
2021/01/30 10:00:41;;;;;;;28.92;26.52;;;;;;;4.82;58.95;100358.00;5060813;28;20032;-80
2021/01/30 10:03:20;;;;;;;31.10;28.63;;;;;;;4.58;59.28;100361.53;5055874;28;20127;-80
2021/01/30 10:05:50;;;;;;;30.05;27.65;;;;;;;4.79;58.31;100351.06;5059624;28;20040;-79
2021/01/30 10:08:29;;;;;;;26.95;24.75;;;;;;;4.65;58.93;100366.09;5065801;28;20034;-79
2021/01/30 10:11:02;;;;;;;26.60;24.40;;;;;;;4.57;59.30;100363.41;5060444;28;20047;-78
2021/01/30 10:13:28;;;;;;;29.48;27.23;;;;;;;4.74;58.73;100349.91;5063781;28;20131;-80
2021/01/30 10:15:55;;;;;;;31.92;29.33;;;;;;;4.65;59.21;100351.78;5058897;28;20052;-80
2021/01/30 10:18:23;;;;;;;25.02;22.83;;;;;;;4.62;59.07;100346.75;5066099;28;20028;-79
2021/01/30 10:21:00;;;;;;;23.98;21.77;;;;;;;4.74;58.79;100345.38;5058108;28;20036;-79
2021/01/30 10:23:38;;;;;;;25.98;23.70;;;;;;;4.88;58.80;100345.66;5066086;28;20486;-79
2021/01/30 10:26:11;;;;;;;31.35;28.75;;;;;;;4.84;58.79;100354.09;5063480;28;20039;-80
2021/01/30 10:28:44;;;;;;;38.15;35.03;;;;;;;5.10;58.59;100353.03;5066606;28;20024;-80
2021/01/30 10:31:11;;;;;;;23.15;21.15;;;;;;;4.90;59.07;100347.19;5053711;28;20033;-80
2021/01/30 10:33:43;;;;;;;20.60;18.50;;;;;;;5.24;58.13;100350.66;5061749;28;20032;-80
2021/01/30 10:36:08;;;;;;;22.10;20.10;;;;;;;5.29;57.40;100370.66;5061280;28;20426;-80
2021/01/30 10:38:34;;;;;;;26.88;24.52;;;;;;;5.47;57.08;100345.28;5065379;28;20040;-80
2021/01/30 10:41:02;;;;;;;27.42;25.08;;;;;;;5.47;57.20;100354.25;5059911;28;20642;-80
2021/01/30 10:43:39;;;;;;;32.65;29.98;;;;;;;5.16;56.93;100357.72;5060733;28;20035;-79
2021/01/30 10:46:15;;;;;;;31.25;28.65;;;;;;;5.02;56.85;100347.69;5067607;28;20052;-80
2021/01/30 10:48:40;;;;;;;30.80;28.05;;;;;;;5.04;57.14;100350.19;5067370;28;20034;-80
2021/01/30 10:51:10;;;;;;;26.42;24.02;;;;;;;5.04;57.24;100356.41;5067103;28;20024;-79
2021/01/30 10:53:38;;;;;;;23.50;21.38;;;;;;;5.09;57.54;100354.03;5060219;28;20029;-81
2021/01/30 10:56:23;;;;;;;30.52;27.92;;;;;;;4.83;57.54;100354.25;5067923;28;20465;-80
2021/01/30 10:58:51;;;;;;;30.13;27.63;;;;;;;5.10;57.38;100365.69;5060167;28;20149;-79
2021/01/30 11:01:19;;;;;;;22.90;20.80;;;;;;;4.92;57.36;100369.41;5068026;28;20546;-81
2021/01/30 11:03:53;;;;;;;26.05;23.73;;;;;;;5.09;57.37;100369.38;5067747;28;20040;-80
2021/01/30 11:06:36;;;;;;;38.65;35.58;;;;;;;4.96;57.73;100361.84;5062329;28;20059;-80
2021/01/30 11:09:32;;;;;;;23.45;21.35;;;;;;;5.14;57.26;100359.78;5057804;28;20333;-79
2021/01/30 11:12:18;;;;;;;22.23;20.13;;;;;;;5.29;57.37;100359.88;5070691;28;20068;-81
2021/01/30 11:14:44;;;;;;;25.45;23.10;;;;;;;5.19;57.37;100359.25;5055957;28;20031;-79
2021/01/30 11:17:26;;;;;;;26.85;24.52;;;;;;;5.12;57.68;100358.25;5064683;28;20040;-79
2021/01/30 11:19:51;;;;;;;29.85;27.25;;;;;;;4.99;57.98;100354.25;5059701;28;20039;-80
2021/01/30 11:22:25;;;;;;;24.85;22.63;;;;;;;4.95;58.09;100360.97;5065414;28;20406;-80
2021/01/30 11:25:09;;;;;;;36.33;33.28;;;;;;;5.07;57.65;100353.38;5061066;28;20029;-80
2021/01/30 11:27:37;;;;;;;33.50;30.58;;;;;;;5.11;57.60;100360.13;5061311;28;20036;-80
2021/01/30 11:30:15;;;;;;;32.72;29.92;;;;;;;5.07;57.65;100342.59;5069516;28;20032;-79
2021/01/30 11:32:41;;;;;;;28.48;26.00;;;;;;;5.23;57.71;100341.69;5066599;28;20028;-79
2021/01/30 11:35:07;;;;;;;24.85;22.42;;;;;;;5.29;58.12;100349.09;5059681;28;20124;-80
2021/01/30 11:37:32;;;;;;;31.08;28.45;;;;;;;5.27;59.06;100337.66;5057352;28;20161;-80
2021/01/30 11:40:04;;;;;;;22.88;20.67;;;;;;;5.14;58.36;100330.13;5059201;28;20524;-80
2021/01/30 11:42:30;;;;;;;23.92;21.63;;;;;;;5.16;58.55;100338.03;5057813;28;20115;-80
2021/01/30 11:44:56;;;;;;;25.83;23.27;;;;;;;5.29;58.18;100332.09;5061175;28;20040;-79
2021/01/30 11:47:21;;;;;;;21.92;19.80;;;;;;;5.32;58.23;100324.47;5053909;28;20032;-80